sensor_id;sensor_type;location;lat;lon;timestamp;P1;durP1;ratioP1;P2;durP2;ratioP2
49015;SDS011;34830;44.064;12.566;2023-09-19T00:01:19;21.52;;;5.50;;
49015;SDS011;34830;44.064;12.566;2023-09-19T00:03:46;26.20;;;5.82;;
49015;SDS011;34830;44.064;12.566;2023-09-19T00:06:12;32.08;;;6.13;;
49015;SDS011;34830;44.064;12.566;2023-09-19T00:08:41;31.55;;;6.70;;
49015;SDS011;34830;44.064;12.566;2023-09-19T00:11:10;25.38;;;6.78;;
49015;SDS011;34830;44.064;12.566;2023-09-19T00:13:36;33.22;;;4.93;;
49015;SDS011;34830;44.064;12.566;2023-09-19T00:16:11;29.50;;;7.32;;
49015;SDS011;34830;44.064;12.566;2023-09-19T00:18:38;23.33;;;4.85;;
49015;SDS011;34830;44.064;12.566;2023-09-19T00:21:04;27.45;;;4.88;;
49015;SDS011;34830;44.064;12.566;2023-09-19T00:23:30;26.90;;;5.88;;
49015;SDS011;34830;44.064;12.566;2023-09-19T00:26:00;28.63;;;4.75;;
49015;SDS011;34830;44.064;12.566;2023-09-19T00:28:29;33.17;;;5.75;;
49015;SDS011;34830;44.064;12.566;2023-09-19T00:30:57;25.02;;;5.65;;
49015;SDS011;34830;44.064;12.566;2023-09-19T00:33:27;33.33;;;6.10;;
49015;SDS011;34830;44.064;12.566;2023-09-19T00:35:56;32.28;;;5.28;;
49015;SDS011;34830;44.064;12.566;2023-09-19T00:38:23;23.58;;;5.05;;
49015;SDS011;34830;44.064;12.566;2023-09-19T00:40:53;32.13;;;5.50;;
49015;SDS011;34830;44.064;12.566;2023-09-19T00:43:20;25.98;;;5.10;;
49015;SDS011;34830;44.064;12.566;2023-09-19T00:45:50;26.02;;;5.55;;
49015;SDS011;34830;44.064;12.566;2023-09-19T00:48:19;28.27;;;5.30;;
49015;SDS011;34830;44.064;12.566;2023-09-19T00:50:46;28.30;;;5.88;;
49015;SDS011;34830;44.064;12.566;2023-09-19T00:53:18;18.77;;;4.63;;
49015;SDS011;34830;44.064;12.566;2023-09-19T00:55:46;30.50;;;4.93;;
49015;SDS011;34830;44.064;12.566;2023-09-19T00:58:13;30.58;;;5.97;;
49015;SDS011;34830;44.064;12.566;2023-09-19T01:00:40;19.10;;;4.50;;
49015;SDS011;34830;44.064;12.566;2023-09-19T01:03:06;27.55;;;5.72;;
49015;SDS011;34830;44.064;12.566;2023-09-19T01:05:36;23.33;;;5.97;;
49015;SDS011;34830;44.064;12.566;2023-09-19T01:08:02;27.55;;;4.72;;
49015;SDS011;34830;44.064;12.566;2023-09-19T01:10:29;24.40;;;5.25;;
49015;SDS011;34830;44.064;12.566;2023-09-19T01:13:07;27.38;;;6.10;;
49015;SDS011;34830;44.064;12.566;2023-09-19T01:18:27;28.67;;;7.18;;
49015;SDS011;34830;44.064;12.566;2023-09-19T01:21:28;22.00;;;4.85;;
49015;SDS011;34830;44.064;12.566;2023-09-19T01:29:44;20.17;;;4.28;;
49015;SDS011;34830;44.064;12.566;2023-09-19T01:32:19;34.45;;;6.05;;
49015;SDS011;34830;44.064;12.566;2023-09-19T01:34:53;30.60;;;5.65;;
49015;SDS011;34830;44.064;12.566;2023-09-19T01:37:23;20.88;;;4.30;;
49015;SDS011;34830;44.064;12.566;2023-09-19T01:40:00;25.40;;;5.40;;
49015;SDS011;34830;44.064;12.566;2023-09-19T01:51:09;24.73;;;4.55;;
49015;SDS011;34830;44.064;12.566;2023-09-19T01:53:39;20.40;;;4.18;;
49015;SDS011;34830;44.064;12.566;2023-09-19T01:56:08;22.48;;;4.32;;
49015;SDS011;34830;44.064;12.566;2023-09-19T01:58:44;28.38;;;6.70;;
49015;SDS011;34830;44.064;12.566;2023-09-19T02:01:14;26.00;;;4.97;;
49015;SDS011;34830;44.064;12.566;2023-09-19T02:03:42;24.67;;;4.25;;
49015;SDS011;34830;44.064;12.566;2023-09-19T02:06:13;27.10;;;5.28;;
49015;SDS011;34830;44.064;12.566;2023-09-19T02:08:44;23.70;;;5.93;;
49015;SDS011;34830;44.064;12.566;2023-09-19T02:11:13;21.92;;;5.50;;
49015;SDS011;34830;44.064;12.566;2023-09-19T02:13:39;24.08;;;5.18;;
49015;SDS011;34830;44.064;12.566;2023-09-19T02:16:06;24.95;;;5.20;;
49015;SDS011;34830;44.064;12.566;2023-09-19T02:18:33;23.90;;;4.78;;
49015;SDS011;34830;44.064;12.566;2023-09-19T02:21:01;29.50;;;5.88;;
49015;SDS011;34830;44.064;12.566;2023-09-19T02:23:27;30.88;;;6.25;;
49015;SDS011;34830;44.064;12.566;2023-09-19T02:25:55;34.97;;;6.43;;
49015;SDS011;34830;44.064;12.566;2023-09-19T02:28:26;36.70;;;6.70;;
49015;SDS011;34830;44.064;12.566;2023-09-19T02:30:58;23.77;;;4.72;;
49015;SDS011;34830;44.064;12.566;2023-09-19T02:33:25;27.67;;;5.85;;
49015;SDS011;34830;44.064;12.566;2023-09-19T02:35:56;24.33;;;4.72;;
49015;SDS011;34830;44.064;12.566;2023-09-19T02:38:27;21.98;;;4.32;;
49015;SDS011;34830;44.064;12.566;2023-09-19T02:40:54;23.48;;;4.75;;
49015;SDS011;34830;44.064;12.566;2023-09-19T02:43:21;25.33;;;5.50;;
49015;SDS011;34830;44.064;12.566;2023-09-19T02:45:48;21.20;;;5.75;;
49015;SDS011;34830;44.064;12.566;2023-09-19T02:48:22;22.92;;;5.00;;
49015;SDS011;34830;44.064;12.566;2023-09-19T02:50:52;18.42;;;4.28;;
49015;SDS011;34830;44.064;12.566;2023-09-19T02:53:18;19.00;;;4.22;;
49015;SDS011;34830;44.064;12.566;2023-09-19T02:55:44;31.38;;;5.65;;
49015;SDS011;34830;44.064;12.566;2023-09-19T02:58:12;21.77;;;4.75;;
49015;SDS011;34830;44.064;12.566;2023-09-19T03:00:40;19.75;;;4.53;;
49015;SDS011;34830;44.064;12.566;2023-09-19T03:03:08;21.33;;;4.95;;
49015;SDS011;34830;44.064;12.566;2023-09-19T03:05:34;15.70;;;3.92;;
49015;SDS011;34830;44.064;12.566;2023-09-19T03:08:01;17.88;;;3.97;;
49015;SDS011;34830;44.064;12.566;2023-09-19T03:10:27;22.02;;;5.05;;
49015;SDS011;34830;44.064;12.566;2023-09-19T03:12:56;21.05;;;5.05;;
49015;SDS011;34830;44.064;12.566;2023-09-19T03:15:23;24.20;;;4.78;;
49015;SDS011;34830;44.064;12.566;2023-09-19T03:17:51;16.25;;;5.18;;
49015;SDS011;34830;44.064;12.566;2023-09-19T03:20:20;14.82;;;3.88;;
49015;SDS011;34830;44.064;12.566;2023-09-19T03:22:48;16.23;;;3.97;;
49015;SDS011;34830;44.064;12.566;2023-09-19T03:25:15;13.88;;;3.88;;
49015;SDS011;34830;44.064;12.566;2023-09-19T03:27:44;23.27;;;4.55;;
49015;SDS011;34830;44.064;12.566;2023-09-19T03:30:12;20.30;;;3.65;;
49015;SDS011;34830;44.064;12.566;2023-09-19T03:32:47;17.38;;;3.63;;
49015;SDS011;34830;44.064;12.566;2023-09-19T03:35:16;16.75;;;3.60;;
49015;SDS011;34830;44.064;12.566;2023-09-19T03:37:43;21.17;;;3.88;;
49015;SDS011;34830;44.064;12.566;2023-09-19T03:40:10;17.77;;;4.18;;
49015;SDS011;34830;44.064;12.566;2023-09-19T03:42:41;11.43;;;3.88;;
49015;SDS011;34830;44.064;12.566;2023-09-19T03:45:10;16.55;;;5.90;;
49015;SDS011;34830;44.064;12.566;2023-09-19T03:47:44;21.17;;;3.78;;
49015;SDS011;34830;44.064;12.566;2023-09-19T03:50:13;13.43;;;3.78;;
49015;SDS011;34830;44.064;12.566;2023-09-19T03:52:46;16.25;;;4.07;;
49015;SDS011;34830;44.064;12.566;2023-09-19T03:55:12;16.58;;;4.43;;
49015;SDS011;34830;44.064;12.566;2023-09-19T03:57:39;20.15;;;4.03;;
49015;SDS011;34830;44.064;12.566;2023-09-19T04:00:06;11.73;;;3.33;;
49015;SDS011;34830;44.064;12.566;2023-09-19T04:02:41;15.57;;;4.03;;
49015;SDS011;34830;44.064;12.566;2023-09-19T04:05:07;14.35;;;3.95;;
49015;SDS011;34830;44.064;12.566;2023-09-19T04:07:34;17.13;;;4.03;;
49015;SDS011;34830;44.064;12.566;2023-09-19T04:10:00;19.40;;;3.97;;
49015;SDS011;34830;44.064;12.566;2023-09-19T04:12:27;19.88;;;3.80;;
49015;SDS011;34830;44.064;12.566;2023-09-19T04:14:53;12.80;;;3.97;;
49015;SDS011;34830;44.064;12.566;2023-09-19T04:17:19;15.13;;;3.70;;
49015;SDS011;34830;44.064;12.566;2023-09-19T04:19:46;17.83;;;3.55;;
49015;SDS011;34830;44.064;12.566;2023-09-19T04:22:12;11.63;;;4.20;;
49015;SDS011;34830;44.064;12.566;2023-09-19T04:24:38;18.15;;;4.30;;
49015;SDS011;34830;44.064;12.566;2023-09-19T04:27:05;14.35;;;4.22;;
49015;SDS011;34830;44.064;12.566;2023-09-19T04:29:31;12.82;;;4.40;;
49015;SDS011;34830;44.064;12.566;2023-09-19T04:31:57;14.65;;;3.70;;
49015;SDS011;34830;44.064;12.566;2023-09-19T04:34:23;16.98;;;3.95;;
49015;SDS011;34830;44.064;12.566;2023-09-19T04:36:50;12.88;;;3.85;;
49015;SDS011;34830;44.064;12.566;2023-09-19T04:39:16;17.48;;;4.15;;
49015;SDS011;34830;44.064;12.566;2023-09-19T04:41:43;15.40;;;4.50;;
49015;SDS011;34830;44.064;12.566;2023-09-19T04:44:11;20.65;;;4.80;;
49015;SDS011;34830;44.064;12.566;2023-09-19T04:46:39;18.77;;;4.78;;
49015;SDS011;34830;44.064;12.566;2023-09-19T04:49:05;15.85;;;5.45;;
49015;SDS011;34830;44.064;12.566;2023-09-19T04:51:31;14.77;;;5.32;;
49015;SDS011;34830;44.064;12.566;2023-09-19T04:54:00;13.52;;;4.18;;
49015;SDS011;34830;44.064;12.566;2023-09-19T04:56:26;15.93;;;4.07;;
49015;SDS011;34830;44.064;12.566;2023-09-19T04:58:54;20.92;;;4.43;;
49015;SDS011;34830;44.064;12.566;2023-09-19T05:01:20;24.60;;;4.38;;
49015;SDS011;34830;44.064;12.566;2023-09-19T05:03:49;21.33;;;4.80;;
49015;SDS011;34830;44.064;12.566;2023-09-19T05:06:21;28.17;;;4.82;;
49015;SDS011;34830;44.064;12.566;2023-09-19T05:08:48;19.20;;;4.60;;
49015;SDS011;34830;44.064;12.566;2023-09-19T05:11:18;17.80;;;4.43;;
49015;SDS011;34830;44.064;12.566;2023-09-19T05:13:45;21.98;;;4.97;;
49015;SDS011;34830;44.064;12.566;2023-09-19T05:16:11;16.90;;;4.90;;
49015;SDS011;34830;44.064;12.566;2023-09-19T05:18:38;11.82;;;3.83;;
49015;SDS011;34830;44.064;12.566;2023-09-19T05:21:04;16.88;;;4.05;;
49015;SDS011;34830;44.064;12.566;2023-09-19T05:23:30;17.55;;;5.05;;
49015;SDS011;34830;44.064;12.566;2023-09-19T05:25:56;11.55;;;3.65;;
49015;SDS011;34830;44.064;12.566;2023-09-19T05:28:25;20.42;;;4.28;;
49015;SDS011;34830;44.064;12.566;2023-09-19T05:30:52;16.17;;;3.88;;
49015;SDS011;34830;44.064;12.566;2023-09-19T05:33:19;20.10;;;4.47;;
49015;SDS011;34830;44.064;12.566;2023-09-19T05:35:45;23.08;;;4.57;;
49015;SDS011;34830;44.064;12.566;2023-09-19T05:38:13;17.55;;;4.00;;
49015;SDS011;34830;44.064;12.566;2023-09-19T05:40:44;18.33;;;4.50;;
49015;SDS011;34830;44.064;12.566;2023-09-19T05:43:11;19.67;;;4.28;;
49015;SDS011;34830;44.064;12.566;2023-09-19T05:45:37;12.95;;;4.22;;
49015;SDS011;34830;44.064;12.566;2023-09-19T05:48:11;16.48;;;3.45;;
49015;SDS011;34830;44.064;12.566;2023-09-19T05:50:39;12.85;;;4.43;;
49015;SDS011;34830;44.064;12.566;2023-09-19T05:53:05;20.63;;;4.30;;
49015;SDS011;34830;44.064;12.566;2023-09-19T05:55:32;18.10;;;4.25;;
49015;SDS011;34830;44.064;12.566;2023-09-19T05:57:58;12.82;;;4.05;;
49015;SDS011;34830;44.064;12.566;2023-09-19T06:00:25;20.35;;;4.05;;
49015;SDS011;34830;44.064;12.566;2023-09-19T06:02:53;14.73;;;3.60;;
49015;SDS011;34830;44.064;12.566;2023-09-19T06:05:20;17.63;;;3.90;;
49015;SDS011;34830;44.064;12.566;2023-09-19T06:07:47;19.02;;;3.95;;
49015;SDS011;34830;44.064;12.566;2023-09-19T06:10:13;27.42;;;4.85;;
49015;SDS011;34830;44.064;12.566;2023-09-19T06:12:40;17.02;;;4.75;;
49015;SDS011;34830;44.064;12.566;2023-09-19T06:15:10;46.63;;;5.88;;
49015;SDS011;34830;44.064;12.566;2023-09-19T06:17:48;13.35;;;5.65;;
49015;SDS011;34830;44.064;12.566;2023-09-19T06:20:15;17.10;;;3.63;;
49015;SDS011;34830;44.064;12.566;2023-09-19T06:22:42;19.60;;;3.70;;
49015;SDS011;34830;44.064;12.566;2023-09-19T06:25:10;19.35;;;4.90;;
49015;SDS011;34830;44.064;12.566;2023-09-19T06:27:45;13.02;;;3.75;;
49015;SDS011;34830;44.064;12.566;2023-09-19T06:30:12;15.02;;;4.10;;
49015;SDS011;34830;44.064;12.566;2023-09-19T06:32:42;18.63;;;4.43;;
49015;SDS011;34830;44.064;12.566;2023-09-19T06:35:12;14.38;;;4.15;;
49015;SDS011;34830;44.064;12.566;2023-09-19T06:37:39;22.27;;;5.10;;
49015;SDS011;34830;44.064;12.566;2023-09-19T06:40:13;24.52;;;5.60;;
49015;SDS011;34830;44.064;12.566;2023-09-19T06:42:43;20.85;;;4.70;;
49015;SDS011;34830;44.064;12.566;2023-09-19T06:45:11;18.88;;;4.45;;
49015;SDS011;34830;44.064;12.566;2023-09-19T06:47:45;18.30;;;3.83;;
49015;SDS011;34830;44.064;12.566;2023-09-19T06:50:11;16.52;;;3.58;;
49015;SDS011;34830;44.064;12.566;2023-09-19T06:52:40;18.50;;;4.65;;
49015;SDS011;34830;44.064;12.566;2023-09-19T06:55:07;18.85;;;4.85;;
49015;SDS011;34830;44.064;12.566;2023-09-19T06:57:35;16.90;;;5.53;;
49015;SDS011;34830;44.064;12.566;2023-09-19T07:00:01;17.88;;;4.20;;
49015;SDS011;34830;44.064;12.566;2023-09-19T07:02:28;18.10;;;4.07;;
49015;SDS011;34830;44.064;12.566;2023-09-19T07:04:54;13.65;;;3.97;;
49015;SDS011;34830;44.064;12.566;2023-09-19T07:07:20;16.20;;;4.55;;
49015;SDS011;34830;44.064;12.566;2023-09-19T07:09:46;18.55;;;4.53;;
49015;SDS011;34830;44.064;12.566;2023-09-19T07:12:14;14.00;;;4.65;;
49015;SDS011;34830;44.064;12.566;2023-09-19T07:14:40;14.13;;;3.95;;
49015;SDS011;34830;44.064;12.566;2023-09-19T07:17:06;13.40;;;4.15;;
49015;SDS011;34830;44.064;12.566;2023-09-19T07:19:34;16.80;;;3.55;;
49015;SDS011;34830;44.064;12.566;2023-09-19T07:22:00;15.38;;;3.20;;
49015;SDS011;34830;44.064;12.566;2023-09-19T07:24:28;15.75;;;3.72;;
49015;SDS011;34830;44.064;12.566;2023-09-19T07:26:55;16.33;;;3.53;;
49015;SDS011;34830;44.064;12.566;2023-09-19T07:29:21;16.20;;;3.97;;
49015;SDS011;34830;44.064;12.566;2023-09-19T07:31:47;11.18;;;3.08;;
49015;SDS011;34830;44.064;12.566;2023-09-19T07:34:13;12.30;;;3.63;;
49015;SDS011;34830;44.064;12.566;2023-09-19T07:36:39;18.50;;;3.80;;
49015;SDS011;34830;44.064;12.566;2023-09-19T07:39:07;19.58;;;3.67;;
49015;SDS011;34830;44.064;12.566;2023-09-19T07:41:33;16.17;;;4.47;;
49015;SDS011;34830;44.064;12.566;2023-09-19T07:43:59;11.30;;;3.75;;
49015;SDS011;34830;44.064;12.566;2023-09-19T07:46:26;15.32;;;3.38;;
49015;SDS011;34830;44.064;12.566;2023-09-19T07:48:52;13.57;;;3.10;;
49015;SDS011;34830;44.064;12.566;2023-09-19T07:51:18;16.48;;;4.05;;
49015;SDS011;34830;44.064;12.566;2023-09-19T07:53:44;12.10;;;2.50;;
49015;SDS011;34830;44.064;12.566;2023-09-19T07:56:10;10.40;;;2.70;;
49015;SDS011;34830;44.064;12.566;2023-09-19T07:58:39;12.07;;;4.30;;
49015;SDS011;34830;44.064;12.566;2023-09-19T08:01:07;11.55;;;3.95;;
49015;SDS011;34830;44.064;12.566;2023-09-19T08:03:34;14.90;;;3.10;;
49015;SDS011;34830;44.064;12.566;2023-09-19T08:06:00;18.65;;;3.00;;
49015;SDS011;34830;44.064;12.566;2023-09-19T08:08:27;12.50;;;3.30;;
49015;SDS011;34830;44.064;12.566;2023-09-19T08:10:53;10.40;;;2.92;;
49015;SDS011;34830;44.064;12.566;2023-09-19T08:13:25;14.73;;;4.45;;
49015;SDS011;34830;44.064;12.566;2023-09-19T08:15:52;13.57;;;3.60;;
49015;SDS011;34830;44.064;12.566;2023-09-19T08:18:20;10.15;;;3.20;;
49015;SDS011;34830;44.064;12.566;2023-09-19T08:20:50;9.95;;;2.88;;
49015;SDS011;34830;44.064;12.566;2023-09-19T08:23:16;20.08;;;8.07;;
49015;SDS011;34830;44.064;12.566;2023-09-19T08:25:46;10.73;;;3.50;;
49015;SDS011;34830;44.064;12.566;2023-09-19T08:28:12;9.57;;;2.47;;
49015;SDS011;34830;44.064;12.566;2023-09-19T08:30:45;10.75;;;2.63;;
49015;SDS011;34830;44.064;12.566;2023-09-19T08:33:11;8.55;;;2.28;;
49015;SDS011;34830;44.064;12.566;2023-09-19T08:35:37;14.23;;;3.03;;
49015;SDS011;34830;44.064;12.566;2023-09-19T08:38:05;9.02;;;3.05;;
49015;SDS011;34830;44.064;12.566;2023-09-19T08:40:32;14.02;;;3.63;;
49015;SDS011;34830;44.064;12.566;2023-09-19T08:43:01;6.13;;;2.63;;
49015;SDS011;34830;44.064;12.566;2023-09-19T08:45:28;12.63;;;2.85;;
49015;SDS011;34830;44.064;12.566;2023-09-19T08:48:00;10.30;;;4.30;;
49015;SDS011;34830;44.064;12.566;2023-09-19T08:50:29;9.82;;;3.22;;
49015;SDS011;34830;44.064;12.566;2023-09-19T08:52:56;10.85;;;3.65;;
49015;SDS011;34830;44.064;12.566;2023-09-19T08:55:27;12.68;;;2.90;;
49015;SDS011;34830;44.064;12.566;2023-09-19T08:58:03;12.52;;;3.03;;
49015;SDS011;34830;44.064;12.566;2023-09-19T09:00:33;7.32;;;2.10;;
49015;SDS011;34830;44.064;12.566;2023-09-19T09:03:00;10.65;;;2.60;;
49015;SDS011;34830;44.064;12.566;2023-09-19T09:05:27;9.30;;;2.60;;
49015;SDS011;34830;44.064;12.566;2023-09-19T09:07:53;10.98;;;2.90;;
49015;SDS011;34830;44.064;12.566;2023-09-19T09:10:23;8.45;;;2.80;;
49015;SDS011;34830;44.064;12.566;2023-09-19T09:12:51;15.43;;;3.45;;
49015;SDS011;34830;44.064;12.566;2023-09-19T09:15:18;12.48;;;3.13;;
49015;SDS011;34830;44.064;12.566;2023-09-19T09:17:47;13.13;;;3.05;;
49015;SDS011;34830;44.064;12.566;2023-09-19T09:20:14;8.48;;;2.40;;
49015;SDS011;34830;44.064;12.566;2023-09-19T09:22:50;14.85;;;2.70;;
49015;SDS011;34830;44.064;12.566;2023-09-19T09:25:19;8.50;;;2.60;;
49015;SDS011;34830;44.064;12.566;2023-09-19T09:28:02;11.50;;;2.70;;
49015;SDS011;34830;44.064;12.566;2023-09-19T09:30:35;8.48;;;2.70;;
49015;SDS011;34830;44.064;12.566;2023-09-19T09:33:13;12.20;;;2.30;;
49015;SDS011;34830;44.064;12.566;2023-09-19T09:35:47;12.48;;;2.75;;
49015;SDS011;34830;44.064;12.566;2023-09-19T09:38:24;10.70;;;3.13;;
49015;SDS011;34830;44.064;12.566;2023-09-19T09:40:53;9.75;;;2.47;;
49015;SDS011;34830;44.064;12.566;2023-09-19T09:43:33;12.77;;;4.07;;
49015;SDS011;34830;44.064;12.566;2023-09-19T09:48:58;16.67;;;3.70;;
49015;SDS011;34830;44.064;12.566;2023-09-19T09:54:26;13.63;;;3.03;;
49015;SDS011;34830;44.064;12.566;2023-09-19T09:57:11;9.88;;;2.83;;
49015;SDS011;34830;44.064;12.566;2023-09-19T10:02:35;10.73;;;3.00;;
49015;SDS011;34830;44.064;12.566;2023-09-19T10:05:24;10.20;;;3.22;;
49015;SDS011;34830;44.064;12.566;2023-09-19T10:07:54;10.98;;;2.72;;
49015;SDS011;34830;44.064;12.566;2023-09-19T10:10:29;9.23;;;3.35;;
49015;SDS011;34830;44.064;12.566;2023-09-19T10:13:09;8.65;;;2.33;;
49015;SDS011;34830;44.064;12.566;2023-09-19T10:15:47;10.13;;;2.80;;
49015;SDS011;34830;44.064;12.566;2023-09-19T10:18:19;11.27;;;2.53;;
49015;SDS011;34830;44.064;12.566;2023-09-19T10:20:47;9.00;;;2.55;;
49015;SDS011;34830;44.064;12.566;2023-09-19T10:23:16;5.70;;;2.60;;
49015;SDS011;34830;44.064;12.566;2023-09-19T10:25:48;8.73;;;2.50;;
49015;SDS011;34830;44.064;12.566;2023-09-19T10:28:16;7.22;;;2.50;;
49015;SDS011;34830;44.064;12.566;2023-09-19T10:30:47;10.23;;;2.35;;
49015;SDS011;34830;44.064;12.566;2023-09-19T10:33:16;12.13;;;3.20;;
49015;SDS011;34830;44.064;12.566;2023-09-19T10:35:44;7.93;;;2.45;;
49015;SDS011;34830;44.064;12.566;2023-09-19T10:38:11;11.40;;;2.60;;
49015;SDS011;34830;44.064;12.566;2023-09-19T10:40:38;9.40;;;2.92;;
49015;SDS011;34830;44.064;12.566;2023-09-19T10:43:12;7.07;;;2.85;;
49015;SDS011;34830;44.064;12.566;2023-09-19T10:45:40;8.15;;;2.67;;
49015;SDS011;34830;44.064;12.566;2023-09-19T10:48:07;9.02;;;2.25;;
49015;SDS011;34830;44.064;12.566;2023-09-19T10:50:34;9.27;;;2.90;;
49015;SDS011;34830;44.064;12.566;2023-09-19T10:53:03;9.70;;;3.70;;
49015;SDS011;34830;44.064;12.566;2023-09-19T10:55:31;12.98;;;3.63;;
49015;SDS011;34830;44.064;12.566;2023-09-19T10:57:58;10.75;;;3.00;;
49015;SDS011;34830;44.064;12.566;2023-09-19T11:00:50;12.63;;;4.03;;
49015;SDS011;34830;44.064;12.566;2023-09-19T11:03:17;9.32;;;3.05;;
49015;SDS011;34830;44.064;12.566;2023-09-19T11:08:52;7.85;;;3.13;;
49015;SDS011;34830;44.064;12.566;2023-09-19T11:11:51;10.93;;;2.75;;
49015;SDS011;34830;44.064;12.566;2023-09-19T11:25:53;7.80;;;2.97;;
49015;SDS011;34830;44.064;12.566;2023-09-19T11:30:48;9.05;;;2.30;;
49015;SDS011;34830;44.064;12.566;2023-09-19T11:36:05;6.93;;;2.42;;
49015;SDS011;34830;44.064;12.566;2023-09-19T11:43:46;12.00;;;2.90;;
49015;SDS011;34830;44.064;12.566;2023-09-19T11:46:21;9.30;;;2.55;;
49015;SDS011;34830;44.064;12.566;2023-09-19T11:48:47;7.05;;;2.85;;
49015;SDS011;34830;44.064;12.566;2023-09-19T11:51:16;7.72;;;2.17;;
49015;SDS011;34830;44.064;12.566;2023-09-19T11:53:49;7.00;;;2.58;;
49015;SDS011;34830;44.064;12.566;2023-09-19T11:56:19;9.10;;;2.72;;
49015;SDS011;34830;44.064;12.566;2023-09-19T11:58:50;6.10;;;2.15;;
49015;SDS011;34830;44.064;12.566;2023-09-19T12:03:57;13.63;;;6.10;;
49015;SDS011;34830;44.064;12.566;2023-09-19T12:06:25;10.55;;;2.80;;
49015;SDS011;34830;44.064;12.566;2023-09-19T12:08:52;13.05;;;3.10;;
49015;SDS011;34830;44.064;12.566;2023-09-19T12:11:20;8.20;;;2.40;;
49015;SDS011;34830;44.064;12.566;2023-09-19T12:13:48;9.95;;;2.65;;
49015;SDS011;34830;44.064;12.566;2023-09-19T12:16:16;10.85;;;3.22;;
49015;SDS011;34830;44.064;12.566;2023-09-19T12:18:43;11.73;;;3.10;;
49015;SDS011;34830;44.064;12.566;2023-09-19T12:24:12;7.07;;;3.10;;
49015;SDS011;34830;44.064;12.566;2023-09-19T12:26:45;12.77;;;3.35;;
49015;SDS011;34830;44.064;12.566;2023-09-19T12:29:21;8.48;;;2.80;;
49015;SDS011;34830;44.064;12.566;2023-09-19T12:31:51;6.70;;;3.05;;
49015;SDS011;34830;44.064;12.566;2023-09-19T12:34:21;11.70;;;3.88;;
49015;SDS011;34830;44.064;12.566;2023-09-19T12:37:05;9.02;;;3.25;;
49015;SDS011;34830;44.064;12.566;2023-09-19T12:39:38;10.82;;;2.90;;
49015;SDS011;34830;44.064;12.566;2023-09-19T12:42:11;8.40;;;2.65;;
49015;SDS011;34830;44.064;12.566;2023-09-19T12:44:44;11.57;;;2.50;;
49015;SDS011;34830;44.064;12.566;2023-09-19T12:47:15;9.13;;;2.33;;
49015;SDS011;34830;44.064;12.566;2023-09-19T12:52:35;10.85;;;2.60;;
49015;SDS011;34830;44.064;12.566;2023-09-19T12:55:06;9.50;;;2.42;;
49015;SDS011;34830;44.064;12.566;2023-09-19T12:57:36;16.38;;;2.47;;
49015;SDS011;34830;44.064;12.566;2023-09-19T13:00:03;12.07;;;2.88;;
49015;SDS011;34830;44.064;12.566;2023-09-19T13:02:36;14.27;;;2.90;;
49015;SDS011;34830;44.064;12.566;2023-09-19T13:05:03;10.40;;;2.75;;
49015;SDS011;34830;44.064;12.566;2023-09-19T13:07:42;12.52;;;2.58;;
49015;SDS011;34830;44.064;12.566;2023-09-19T13:10:13;8.75;;;2.97;;
49015;SDS011;34830;44.064;12.566;2023-09-19T13:12:43;14.35;;;3.00;;
49015;SDS011;34830;44.064;12.566;2023-09-19T13:15:13;8.47;;;3.17;;
49015;SDS011;34830;44.064;12.566;2023-09-19T13:17:48;9.30;;;2.72;;
49015;SDS011;34830;44.064;12.566;2023-09-19T13:20:25;7.18;;;2.65;;
49015;SDS011;34830;44.064;12.566;2023-09-19T13:22:55;16.63;;;2.90;;
49015;SDS011;34830;44.064;12.566;2023-09-19T13:25:32;11.93;;;2.92;;
49015;SDS011;34830;44.064;12.566;2023-09-19T13:27:58;9.90;;;2.72;;
49015;SDS011;34830;44.064;12.566;2023-09-19T13:30:26;7.72;;;2.97;;
49015;SDS011;34830;44.064;12.566;2023-09-19T13:33:04;11.68;;;3.38;;
49015;SDS011;34830;44.064;12.566;2023-09-19T13:35:35;8.37;;;3.00;;
49015;SDS011;34830;44.064;12.566;2023-09-19T13:40:38;10.73;;;2.85;;
49015;SDS011;34830;44.064;12.566;2023-09-19T13:43:05;11.10;;;2.88;;
49015;SDS011;34830;44.064;12.566;2023-09-19T13:45:32;8.60;;;2.60;;
49015;SDS011;34830;44.064;12.566;2023-09-19T13:47:58;11.65;;;2.90;;
49015;SDS011;34830;44.064;12.566;2023-09-19T13:50:24;13.43;;;3.88;;
49015;SDS011;34830;44.064;12.566;2023-09-19T13:52:52;14.85;;;3.42;;
49015;SDS011;34830;44.064;12.566;2023-09-19T13:55:19;7.28;;;2.72;;
49015;SDS011;34830;44.064;12.566;2023-09-19T13:57:46;9.52;;;2.67;;
49015;SDS011;34830;44.064;12.566;2023-09-19T14:00:18;9.55;;;3.33;;
49015;SDS011;34830;44.064;12.566;2023-09-19T14:02:44;9.48;;;3.33;;
49015;SDS011;34830;44.064;12.566;2023-09-19T14:05:12;13.25;;;2.83;;
49015;SDS011;34830;44.064;12.566;2023-09-19T14:07:41;8.95;;;3.17;;
49015;SDS011;34830;44.064;12.566;2023-09-19T14:10:07;10.55;;;3.28;;
49015;SDS011;34830;44.064;12.566;2023-09-19T14:12:34;10.52;;;2.50;;
49015;SDS011;34830;44.064;12.566;2023-09-19T14:15:00;9.88;;;2.70;;
49015;SDS011;34830;44.064;12.566;2023-09-19T14:17:27;13.32;;;2.40;;
49015;SDS011;34830;44.064;12.566;2023-09-19T14:19:53;10.07;;;2.92;;
49015;SDS011;34830;44.064;12.566;2023-09-19T14:22:20;10.32;;;2.78;;
49015;SDS011;34830;44.064;12.566;2023-09-19T14:24:46;7.43;;;2.90;;
49015;SDS011;34830;44.064;12.566;2023-09-19T14:27:13;7.47;;;2.42;;
49015;SDS011;34830;44.064;12.566;2023-09-19T14:29:39;10.40;;;2.50;;
49015;SDS011;34830;44.064;12.566;2023-09-19T14:32:06;7.82;;;2.83;;
49015;SDS011;34830;44.064;12.566;2023-09-19T14:34:32;11.75;;;2.45;;
49015;SDS011;34830;44.064;12.566;2023-09-19T14:36:59;14.45;;;2.83;;
49015;SDS011;34830;44.064;12.566;2023-09-19T14:39:25;12.35;;;3.72;;
49015;SDS011;34830;44.064;12.566;2023-09-19T14:41:51;11.65;;;3.40;;
49015;SDS011;34830;44.064;12.566;2023-09-19T14:44:17;11.38;;;2.92;;
49015;SDS011;34830;44.064;12.566;2023-09-19T14:46:43;11.73;;;3.03;;
49015;SDS011;34830;44.064;12.566;2023-09-19T14:49:11;12.80;;;2.70;;
49015;SDS011;34830;44.064;12.566;2023-09-19T14:51:37;14.32;;;4.50;;
49015;SDS011;34830;44.064;12.566;2023-09-19T14:54:07;9.07;;;2.97;;
49015;SDS011;34830;44.064;12.566;2023-09-19T14:56:33;11.80;;;3.58;;
49015;SDS011;34830;44.064;12.566;2023-09-19T14:59:00;12.25;;;3.42;;
49015;SDS011;34830;44.064;12.566;2023-09-19T15:01:26;7.38;;;2.67;;
49015;SDS011;34830;44.064;12.566;2023-09-19T15:03:52;10.02;;;3.10;;
49015;SDS011;34830;44.064;12.566;2023-09-19T15:06:19;12.13;;;3.83;;
49015;SDS011;34830;44.064;12.566;2023-09-19T15:08:46;11.05;;;3.28;;
49015;SDS011;34830;44.064;12.566;2023-09-19T15:11:16;27.02;;;4.50;;
49015;SDS011;34830;44.064;12.566;2023-09-19T15:13:43;13.02;;;3.20;;
49015;SDS011;34830;44.064;12.566;2023-09-19T15:16:10;9.85;;;3.05;;
49015;SDS011;34830;44.064;12.566;2023-09-19T15:18:37;11.90;;;2.83;;
49015;SDS011;34830;44.064;12.566;2023-09-19T15:21:04;8.63;;;2.70;;
49015;SDS011;34830;44.064;12.566;2023-09-19T15:23:30;16.65;;;3.72;;
49015;SDS011;34830;44.064;12.566;2023-09-19T15:25:58;11.18;;;2.95;;
49015;SDS011;34830;44.064;12.566;2023-09-19T15:28:24;8.05;;;2.70;;
49015;SDS011;34830;44.064;12.566;2023-09-19T15:30:50;7.93;;;3.40;;
49015;SDS011;34830;44.064;12.566;2023-09-19T15:33:16;10.30;;;2.70;;
49015;SDS011;34830;44.064;12.566;2023-09-19T15:35:43;10.25;;;3.20;;